createdAt,value
2019-02-18T00:00:52.047Z,7.69
2019-02-18T00:01:52.048Z,7.72
2019-02-18T00:02:51.928Z,7.74
2019-02-18T00:03:51.930Z,7.77
2019-02-18T00:04:51.806Z,7.64
2019-02-18T00:05:51.879Z,7.58
2019-02-18T00:06:51.810Z,7.56
2019-02-18T00:07:51.687Z,7.58
2019-02-18T00:08:51.687Z,7.64
2019-02-18T00:09:51.566Z,7.62
2019-02-18T00:10:51.563Z,7.59
2019-02-18T00:11:51.564Z,7.67
2019-02-18T00:12:51.445Z,7.59
2019-02-18T00:13:51.442Z,7.55
2019-02-18T00:14:51.325Z,7.58
2019-02-18T00:15:51.329Z,7.56
2019-02-18T00:16:51.329Z,7.58
2019-02-18T00:17:51.203Z,7.46
2019-02-18T00:18:51.203Z,7.46
2019-02-18T00:19:51.080Z,7.51
2019-02-18T00:20:51.085Z,7.48
2019-02-18T00:21:51.087Z,7.50
2019-02-18T00:22:50.964Z,7.50
2019-02-18T00:23:50.962Z,7.48
2019-02-18T00:24:50.850Z,7.53
2019-02-18T00:25:50.844Z,7.48
2019-02-18T00:26:50.838Z,7.46
2019-02-18T00:27:50.719Z,7.36
2019-02-18T00:28:50.721Z,7.40
2019-02-18T00:29:50.724Z,7.40
2019-02-18T00:30:50.681Z,7.33
2019-02-18T00:31:50.682Z,7.31
2019-02-18T00:32:50.605Z,7.29
2019-02-18T00:33:50.601Z,7.36
2019-02-18T00:34:50.360Z,7.21
2019-02-18T00:35:50.364Z,7.29
2019-02-18T00:36:50.361Z,7.32
2019-02-18T00:37:50.246Z,7.26
2019-02-18T00:38:50.237Z,7.22
2019-02-18T00:39:50.126Z,7.18
2019-02-18T00:40:50.117Z,7.14
2019-02-18T00:41:50.121Z,7.14
2019-02-18T00:42:50.003Z,7.14
2019-02-18T00:43:50.002Z,7.11
2019-02-18T00:44:49.879Z,7.19
2019-02-18T00:45:49.877Z,7.14
2019-02-18T00:46:49.875Z,7.03
2019-02-18T00:47:49.761Z,7.11
2019-02-18T00:48:49.757Z,7.11
2019-02-18T00:49:49.637Z,7.10
2019-02-18T00:50:49.638Z,7.01
2019-02-18T00:51:49.640Z,7.10
2019-02-18T00:52:49.516Z,7.08
2019-02-18T00:53:49.516Z,7.01
2019-02-18T00:54:49.399Z,7.01
2019-02-18T00:55:49.404Z,7.03
2019-02-18T00:56:49.392Z,6.97
2019-02-18T00:57:49.278Z,7.00
2019-02-18T00:58:49.276Z,6.95
2019-02-18T00:59:49.153Z,6.92
2019-02-18T01:00:49.157Z,7.00
2019-02-18T01:01:49.154Z,6.96
2019-02-18T01:02:49.033Z,6.87
2019-02-18T01:03:49.035Z,6.96
2019-02-18T01:04:48.913Z,7.05
2019-02-18T01:05:48.912Z,6.97
2019-02-18T01:06:48.919Z,7.04
2019-02-18T01:07:48.792Z,7.07
2019-02-18T01:08:48.793Z,7.05
2019-02-18T01:09:48.680Z,6.97
2019-02-18T01:10:48.672Z,7.10
2019-02-18T01:11:48.731Z,7.04
2019-02-18T01:12:48.556Z,7.04
2019-02-18T01:13:48.551Z,7.08
2019-02-18T01:14:48.430Z,7.05
2019-02-18T01:15:48.428Z,7.05
2019-02-18T01:16:48.429Z,7.07
2019-02-18T01:17:48.316Z,7.03
2019-02-18T01:18:48.310Z,7.00
2019-02-18T01:19:48.190Z,7.05
2019-02-18T01:20:48.186Z,6.96
2019-02-18T01:21:48.192Z,7.01
2019-02-18T01:22:48.070Z,6.97
2019-02-18T01:23:48.070Z,6.87
2019-02-18T01:24:47.947Z,6.87
2019-02-18T01:25:47.950Z,6.93
2019-02-18T01:26:47.951Z,6.87
2019-02-18T01:27:47.829Z,6.85
2019-02-18T01:28:47.831Z,6.87
2019-02-18T01:29:47.707Z,6.85
2019-02-18T01:30:47.707Z,6.87
2019-02-18T01:31:47.709Z,6.89
2019-02-18T01:32:47.592Z,6.78
2019-02-18T01:33:47.584Z,6.86
2019-02-18T01:34:47.465Z,6.75
2019-02-18T01:35:47.467Z,6.77
2019-02-18T01:36:47.466Z,6.72
2019-02-18T01:37:47.360Z,6.71
2019-02-18T01:38:47.343Z,6.71
2019-02-18T01:39:47.233Z,6.74
2019-02-18T01:40:47.225Z,6.67
2019-02-18T01:41:47.224Z,6.64
2019-02-18T01:42:47.103Z,6.52
2019-02-18T01:43:48.062Z,6.50
2019-02-18T01:44:46.983Z,6.54
2019-02-18T01:45:47.040Z,6.53
2019-02-18T01:46:46.985Z,6.52
2019-02-18T01:47:46.864Z,6.46
2019-02-18T01:48:46.867Z,6.47
2019-02-18T01:49:46.750Z,6.43
2019-02-18T01:50:46.744Z,6.43
2019-02-18T01:51:46.743Z,6.43
2019-02-18T01:52:46.622Z,6.41
2019-02-18T01:53:46.620Z,6.43
2019-02-18T01:54:46.504Z,6.38
2019-02-18T01:55:46.501Z,6.32
2019-02-18T01:56:46.497Z,6.19
2019-02-18T01:57:46.381Z,6.29
2019-02-18T01:58:46.381Z,6.31
2019-02-18T01:59:46.263Z,6.15
2019-02-18T02:00:46.262Z,6.22
2019-02-18T02:01:46.223Z,6.10
2019-02-18T02:02:46.140Z,6.22
2019-02-18T02:03:46.142Z,6.13
2019-02-18T02:04:46.022Z,6.09
2019-02-18T02:05:46.018Z,6.10
2019-02-18T02:06:45.899Z,6.09
2019-02-18T02:07:55.478Z,6.09
2019-02-18T02:08:45.903Z,5.99
2019-02-18T02:09:45.781Z,5.98
2019-02-18T02:10:45.779Z,6.07
2019-02-18T02:11:45.662Z,5.99
2019-02-18T02:12:45.658Z,5.99
2019-02-18T02:13:45.657Z,5.91
2019-02-18T02:14:45.538Z,5.95
2019-02-18T02:15:45.535Z,5.97
2019-02-18T02:16:45.426Z,5.94
2019-02-18T02:17:45.421Z,5.91
2019-02-18T02:18:45.423Z,5.87
2019-02-18T02:19:45.299Z,5.91
2019-02-18T02:20:45.299Z,5.84
2019-02-18T02:21:45.180Z,5.83
2019-02-18T02:22:45.176Z,5.88
2019-02-18T02:23:45.176Z,5.94
2019-02-18T02:24:45.065Z,5.95
2019-02-18T02:25:45.062Z,5.94
2019-02-18T02:26:44.935Z,5.91
2019-02-18T02:27:44.937Z,5.81
2019-02-18T02:28:44.935Z,5.81
2019-02-18T02:29:44.857Z,5.80
2019-02-18T02:30:44.920Z,5.88
2019-02-18T02:31:44.694Z,5.91
2019-02-18T02:32:44.696Z,5.87
2019-02-18T02:33:44.696Z,5.95
2019-02-18T02:34:44.573Z,5.95
2019-02-18T02:35:44.573Z,5.90
2019-02-18T02:36:44.456Z,5.98
2019-02-18T02:37:44.453Z,5.98
2019-02-18T02:38:44.449Z,5.95
2019-02-18T02:39:44.339Z,6.05
2019-02-18T02:40:44.334Z,5.97
2019-02-18T02:41:44.213Z,6.01
2019-02-18T02:42:44.215Z,5.92
2019-02-18T02:43:44.174Z,5.95
2019-02-18T02:44:48.307Z,5.95
2019-02-18T02:45:44.094Z,5.92
2019-02-18T02:46:43.975Z,5.91
2019-02-18T02:47:43.972Z,5.88
2019-02-18T02:48:43.855Z,5.90
2019-02-18T02:49:43.852Z,5.88
2019-02-18T02:50:43.852Z,5.87
2019-02-18T02:51:43.728Z,5.83
2019-02-18T02:52:43.730Z,5.81
2019-02-18T02:53:43.613Z,5.81
2019-02-18T02:54:43.611Z,5.83
2019-02-18T02:55:43.608Z,5.81
2019-02-18T02:56:43.492Z,5.80
2019-02-18T02:57:43.517Z,5.88
2019-02-18T02:58:43.368Z,5.81
2019-02-18T02:59:43.367Z,5.83
2019-02-18T03:00:43.376Z,5.83
2019-02-18T03:01:43.253Z,5.80
2019-02-18T03:02:43.249Z,5.83
2019-02-18T03:03:43.128Z,5.79
2019-02-18T03:04:43.129Z,5.81
2019-02-18T03:05:43.127Z,5.77
2019-02-18T03:06:43.022Z,5.70
2019-02-18T03:07:43.006Z,5.76
2019-02-18T03:08:42.891Z,5.73
2019-02-18T03:09:42.888Z,5.70
2019-02-18T03:10:42.885Z,5.72
2019-02-18T03:11:42.766Z,5.67
2019-02-18T03:12:42.768Z,5.72
2019-02-18T03:13:42.648Z,5.80
2019-02-18T03:14:42.698Z,5.76
2019-02-18T03:15:42.608Z,5.70
2019-02-18T03:16:42.522Z,5.79
2019-02-18T03:17:42.532Z,5.72
2019-02-18T03:18:42.408Z,5.83
2019-02-18T03:19:42.405Z,5.81
2019-02-18T03:20:42.375Z,5.74
2019-02-18T03:21:42.283Z,5.79
2019-02-18T03:22:42.283Z,5.76
2019-02-18T03:23:42.162Z,5.80
2019-02-18T03:24:42.185Z,5.74
2019-02-18T03:25:42.042Z,5.72
2019-02-18T03:26:42.043Z,5.81
2019-02-18T03:27:42.042Z,5.79
2019-02-18T03:28:41.922Z,5.79
2019-02-18T03:29:41.924Z,5.81
2019-02-18T03:30:41.845Z,5.77
2019-02-18T03:31:41.810Z,5.73
2019-02-18T03:32:41.803Z,5.72
2019-02-18T03:33:41.688Z,5.67
2019-02-18T03:34:41.690Z,5.65
2019-02-18T03:35:41.571Z,5.70
2019-02-18T03:36:41.561Z,5.69
2019-02-18T03:37:41.560Z,5.69
2019-02-18T03:38:41.445Z,5.69
2019-02-18T03:39:41.439Z,5.72
2019-02-18T03:40:41.322Z,5.67
2019-02-18T03:41:41.327Z,5.59
2019-02-18T03:42:41.320Z,5.61
2019-02-18T03:43:41.210Z,5.59
2019-02-18T03:44:41.199Z,5.58
2019-02-18T03:45:41.083Z,5.61
2019-02-18T03:46:41.082Z,5.62
2019-02-18T03:47:41.041Z,5.59
2019-02-18T03:48:40.958Z,5.61
2019-02-18T03:49:40.958Z,5.56
2019-02-18T03:50:40.837Z,5.59
2019-02-18T03:51:40.838Z,5.54
2019-02-18T03:52:40.729Z,5.51
2019-02-18T03:53:40.718Z,5.47
2019-02-18T03:54:40.718Z,5.54
2019-02-18T03:55:40.598Z,5.51
2019-02-18T03:56:40.594Z,5.46
2019-02-18T03:57:40.473Z,5.40
2019-02-18T03:58:40.477Z,5.43
2019-02-18T03:59:40.480Z,5.44
2019-02-18T04:00:40.359Z,5.37
2019-02-18T04:01:40.359Z,5.47
2019-02-18T04:02:40.235Z,5.40
2019-02-18T04:03:40.246Z,5.33
2019-02-18T04:04:40.235Z,5.37
2019-02-18T04:05:40.136Z,5.26
2019-02-18T04:06:40.116Z,5.28
2019-02-18T04:07:39.995Z,5.28
2019-02-18T04:08:42.832Z,5.25
2019-02-18T04:09:39.992Z,5.26
2019-02-18T04:10:39.871Z,5.20
2019-02-18T04:11:39.875Z,5.15
2019-02-18T04:12:39.752Z,5.18
2019-02-18T04:13:39.752Z,5.12
2019-02-18T04:14:39.716Z,5.10
2019-02-18T04:15:39.631Z,5.08
2019-02-18T04:16:39.633Z,5.00
2019-02-18T04:17:39.512Z,4.98
2019-02-18T04:18:39.513Z,5.00
2019-02-18T04:19:39.397Z,5.00
2019-02-18T04:20:39.392Z,4.89
2019-02-18T04:21:39.392Z,4.98
2019-02-18T04:22:39.269Z,4.83
2019-02-18T04:23:39.279Z,4.83
2019-02-18T04:24:39.151Z,4.89
2019-02-18T04:25:39.148Z,4.87
2019-02-18T04:26:39.148Z,4.82
2019-02-18T04:27:39.028Z,4.83
2019-02-18T04:28:39.030Z,4.68
2019-02-18T04:29:38.914Z,4.67
2019-02-18T04:30:38.915Z,4.64
2019-02-18T04:31:38.909Z,4.71
2019-02-18T04:32:38.791Z,4.64
2019-02-18T04:33:38.792Z,4.58
2019-02-18T04:34:38.670Z,4.53
2019-02-18T04:35:38.667Z,4.50
2019-02-18T04:36:38.663Z,4.57
2019-02-18T04:37:38.549Z,4.52
2019-02-18T04:38:38.551Z,4.52
2019-02-18T04:39:38.438Z,4.46
2019-02-18T04:40:38.424Z,4.46
2019-02-18T04:41:38.307Z,4.45
2019-02-18T04:42:38.309Z,4.43
2019-02-18T04:43:38.306Z,4.46
2019-02-18T04:44:38.189Z,4.43
2019-02-18T04:45:38.188Z,4.40
2019-02-18T04:46:38.066Z,4.42
2019-02-18T04:47:38.069Z,4.34
2019-02-18T04:48:38.065Z,4.32
2019-02-18T04:49:37.950Z,4.28
2019-02-18T04:50:37.942Z,4.24
2019-02-18T04:51:37.827Z,4.28
2019-02-18T04:52:37.829Z,4.24
2019-02-18T04:53:37.826Z,4.31
2019-02-18T04:54:37.709Z,4.25
2019-02-18T04:55:37.703Z,4.21
2019-02-18T04:56:37.584Z,4.27
2019-02-18T04:57:37.583Z,4.21
2019-02-18T04:58:37.464Z,4.25
2019-02-18T04:59:37.466Z,4.24
2019-02-18T05:00:37.478Z,4.22
2019-02-18T05:01:37.355Z,4.13
2019-02-18T05:02:37.381Z,4.13
2019-02-18T05:03:37.225Z,4.13
2019-02-18T05:04:37.221Z,4.09
2019-02-18T05:05:37.223Z,4.12
2019-02-18T05:06:37.103Z,4.09
2019-02-18T05:07:37.109Z,4.07
2019-02-18T05:08:36.985Z,4.10
2019-02-18T05:09:39.722Z,4.04
2019-02-18T05:10:36.982Z,3.89
2019-02-18T05:11:36.864Z,4.00
2019-02-18T05:12:36.869Z,3.89
2019-02-18T05:13:36.742Z,3.89
2019-02-18T05:14:36.740Z,3.88
2019-02-18T05:15:36.625Z,3.99
2019-02-18T05:16:36.625Z,3.96
2019-02-18T05:17:36.620Z,3.92
2019-02-18T05:18:36.499Z,3.92
2019-02-18T05:19:36.511Z,3.88
2019-02-18T05:20:36.376Z,3.88
2019-02-18T05:21:36.376Z,3.89
2019-02-18T05:22:36.381Z,3.84
2019-02-18T05:23:36.260Z,3.91
2019-02-18T05:24:36.261Z,3.82
2019-02-18T05:25:36.139Z,3.77
2019-02-18T05:26:36.137Z,3.77
2019-02-18T05:27:36.144Z,3.76
2019-02-18T05:28:36.016Z,3.81
2019-02-18T05:29:36.014Z,3.73
2019-02-18T05:30:35.898Z,3.77
2019-02-18T05:31:35.894Z,3.70
2019-02-18T05:32:35.776Z,3.70
2019-02-18T05:33:35.776Z,3.78
2019-02-18T05:34:35.840Z,3.67
2019-02-18T05:35:35.661Z,3.73
2019-02-18T05:36:35.661Z,3.68
2019-02-18T05:37:35.536Z,3.66
2019-02-18T05:38:35.540Z,3.64
2019-02-18T05:39:35.537Z,3.67
2019-02-18T05:40:35.417Z,3.66
2019-02-18T05:41:35.417Z,3.58
2019-02-18T05:42:35.297Z,3.61
2019-02-18T05:43:35.296Z,3.56
2019-02-18T05:44:35.258Z,3.58
2019-02-18T05:45:35.181Z,3.59
2019-02-18T05:46:35.175Z,3.58
2019-02-18T05:47:35.056Z,3.59
2019-02-18T05:48:35.052Z,3.63
2019-02-18T05:49:34.947Z,3.64
2019-02-18T05:50:34.933Z,3.61
2019-02-18T05:51:34.932Z,3.53
2019-02-18T05:52:34.815Z,3.53
2019-02-18T05:53:34.814Z,3.52
2019-02-18T05:54:34.695Z,3.55
2019-02-18T05:55:34.693Z,3.49
2019-02-18T05:56:34.690Z,3.50
2019-02-18T05:57:34.577Z,3.50
2019-02-18T05:58:34.571Z,3.55
2019-02-18T05:59:34.451Z,3.55
2019-02-18T06:00:34.460Z,3.55
2019-02-18T06:01:34.450Z,3.53
2019-02-18T06:02:34.331Z,3.40
2019-02-18T06:03:34.336Z,3.41
2019-02-18T06:04:34.214Z,3.37
2019-02-18T06:05:34.211Z,3.40
2019-02-18T06:06:34.086Z,3.50
2019-02-18T06:07:34.089Z,3.46
2019-02-18T06:08:34.102Z,3.50
2019-02-18T06:09:33.969Z,3.45
2019-02-18T06:10:33.967Z,3.55
2019-02-18T06:11:33.846Z,3.53
2019-02-18T06:12:33.848Z,3.46
2019-02-18T06:13:33.809Z,3.43
2019-02-18T06:14:33.731Z,3.37
2019-02-18T06:15:33.736Z,3.37
2019-02-18T06:16:33.609Z,3.34
2019-02-18T06:17:33.604Z,3.31
2019-02-18T06:18:33.487Z,3.29
2019-02-18T06:19:33.489Z,3.30
2019-02-18T06:20:33.494Z,3.22
2019-02-18T06:21:33.365Z,3.30
2019-02-18T06:22:33.365Z,3.29
2019-02-18T06:23:33.251Z,3.26
2019-02-18T06:24:33.245Z,3.31
2019-02-18T06:25:33.207Z,3.22
2019-02-18T06:26:33.122Z,3.31
2019-02-18T06:27:33.133Z,3.22
2019-02-18T06:28:33.006Z,3.21
2019-02-18T06:29:33.009Z,3.24
2019-02-18T06:30:32.885Z,3.26
2019-02-18T06:31:32.884Z,3.21
2019-02-18T06:32:32.883Z,3.21
2019-02-18T06:33:32.767Z,3.19
2019-02-18T06:34:32.764Z,3.19
2019-02-18T06:35:32.647Z,3.30
2019-02-18T06:36:32.643Z,3.21
2019-02-18T06:37:32.611Z,3.24
2019-02-18T06:38:32.528Z,3.21
2019-02-18T06:39:40.756Z,3.18
2019-02-18T06:40:32.400Z,3.13
2019-02-18T06:41:32.399Z,3.19
2019-02-18T06:42:32.282Z,3.18
2019-02-18T06:43:32.279Z,3.15
2019-02-18T06:44:32.283Z,3.16
2019-02-18T06:45:32.163Z,3.12
2019-02-18T06:46:32.158Z,3.12
2019-02-18T06:47:32.042Z,3.08
2019-02-18T06:48:32.038Z,3.11
2019-02-18T06:49:32.001Z,3.06
2019-02-18T06:50:31.920Z,3.15
2019-02-18T06:51:31.923Z,3.15
2019-02-18T06:52:32.696Z,3.21
2019-02-18T06:53:31.800Z,3.09
2019-02-18T06:54:31.678Z,3.09
2019-02-18T06:55:31.679Z,3.08
2019-02-18T06:56:31.682Z,3.09
2019-02-18T06:57:31.556Z,3.13
2019-02-18T06:58:31.556Z,3.15
2019-02-18T06:59:31.436Z,3.22
2019-02-18T07:00:31.436Z,3.11
2019-02-18T07:01:31.436Z,3.06
2019-02-18T07:02:31.318Z,3.12
2019-02-18T07:03:31.326Z,3.12
2019-02-18T07:04:31.201Z,3.12
2019-02-18T07:05:31.199Z,3.19
2019-02-18T07:06:31.073Z,3.19
2019-02-18T07:07:31.081Z,3.12
2019-02-18T07:08:31.074Z,3.26
2019-02-18T07:09:30.956Z,3.09
2019-02-18T07:10:30.960Z,3.09
2019-02-18T07:11:30.835Z,3.22
2019-02-18T07:12:30.837Z,3.22
2019-02-18T07:13:30.841Z,3.22
2019-02-18T07:14:30.712Z,3.16
2019-02-18T07:15:30.713Z,3.18
2019-02-18T07:16:30.597Z,3.16
2019-02-18T07:17:30.610Z,3.21
2019-02-18T07:18:30.559Z,3.30
2019-02-18T07:19:30.477Z,3.21
2019-02-18T07:20:30.475Z,3.18
2019-02-18T07:21:30.352Z,3.22
2019-02-18T07:22:30.351Z,3.19
2019-02-18T07:23:30.236Z,3.29
2019-02-18T07:24:30.232Z,3.21
2019-02-18T07:25:30.235Z,3.24
2019-02-18T07:26:30.108Z,3.34
2019-02-18T07:27:30.110Z,3.26
2019-02-18T07:28:29.989Z,3.29
2019-02-18T07:29:29.988Z,3.27
2019-02-18T07:30:29.869Z,3.41
2019-02-18T07:31:29.884Z,3.37
2019-02-18T07:32:29.882Z,3.34
2019-02-18T07:33:29.834Z,3.41
2019-02-18T07:34:29.756Z,3.46
2019-02-18T07:35:29.635Z,3.45
2019-02-18T07:36:29.640Z,3.49
2019-02-18T07:37:29.630Z,3.46
2019-02-18T07:38:29.515Z,3.55
2019-02-18T07:39:29.515Z,3.41
2019-02-18T07:40:29.393Z,3.50
2019-02-18T07:41:29.394Z,3.46
2019-02-18T07:42:29.275Z,3.56
2019-02-18T07:43:29.268Z,3.64
2019-02-18T07:44:29.269Z,3.68
2019-02-18T07:45:29.150Z,3.85
2019-02-18T07:46:29.145Z,3.88
2019-02-18T07:47:29.029Z,3.92
2019-02-18T07:48:29.025Z,3.92
2019-02-18T07:49:29.032Z,3.91
2019-02-18T07:50:28.911Z,4.12
2019-02-18T07:51:28.907Z,4.13
2019-02-18T07:52:28.786Z,4.27
2019-02-18T07:53:28.783Z,4.25
2019-02-18T07:54:28.779Z,4.25
2019-02-18T07:55:28.663Z,4.39
2019-02-18T07:56:28.667Z,4.49
2019-02-18T07:57:28.544Z,4.66
2019-02-18T07:58:28.542Z,4.75
2019-02-18T07:59:28.428Z,4.84
2019-02-18T08:00:28.424Z,4.97
2019-02-18T08:01:28.428Z,5.15
2019-02-18T08:02:28.306Z,5.37
2019-02-18T08:03:28.304Z,5.46
2019-02-18T08:04:28.183Z,5.70
2019-02-18T08:05:28.185Z,5.84
2019-02-18T08:06:28.182Z,6.05
2019-02-18T08:07:28.070Z,6.15
2019-02-18T08:08:28.135Z,6.32
2019-02-18T08:09:27.946Z,6.59
2019-02-18T08:10:27.943Z,6.80
2019-02-18T08:11:27.939Z,6.85
2019-02-18T08:12:27.820Z,7.04
2019-02-18T08:13:27.821Z,7.23
2019-02-18T08:14:27.707Z,7.41
2019-02-18T08:15:27.700Z,7.55
2019-02-18T08:16:27.701Z,7.56
2019-02-18T08:17:27.581Z,7.62
2019-02-18T08:18:27.579Z,7.67
2019-02-18T08:19:27.458Z,7.74
2019-02-18T08:20:27.462Z,7.84
2019-02-18T08:21:27.460Z,7.98
2019-02-18T08:22:27.339Z,8.05
2019-02-18T08:23:27.341Z,8.17
2019-02-18T08:24:27.221Z,8.16
2019-02-18T08:25:27.219Z,8.35
2019-02-18T08:26:27.180Z,8.41
2019-02-18T08:27:27.098Z,8.54
2019-02-18T08:28:27.099Z,8.68
2019-02-18T08:29:26.976Z,8.64
2019-02-18T08:30:26.976Z,8.86
2019-02-18T08:31:26.983Z,8.99
2019-02-18T08:32:26.858Z,9.12
2019-02-18T08:33:26.858Z,9.22
2019-02-18T08:34:26.739Z,9.31
2019-02-18T08:35:26.735Z,9.39
2019-02-18T08:36:26.737Z,9.48
2019-02-18T08:37:26.616Z,9.54
2019-02-18T08:38:26.612Z,9.59
2019-02-18T08:39:26.492Z,9.74
2019-02-18T08:40:26.496Z,9.74
2019-02-18T08:41:26.504Z,9.80
2019-02-18T08:42:26.372Z,9.85
2019-02-18T08:43:26.372Z,9.87
2019-02-18T08:44:26.252Z,9.95
2019-02-18T08:45:26.258Z,10.18
2019-02-18T08:46:26.256Z,10.20
2019-02-18T08:47:26.133Z,10.27
2019-02-18T08:48:26.135Z,10.42
2019-02-18T08:49:26.010Z,10.48
2019-02-18T08:50:26.014Z,10.48
2019-02-18T08:51:26.014Z,10.55
2019-02-18T08:52:25.895Z,10.65
2019-02-18T08:53:25.900Z,10.58
2019-02-18T08:54:25.773Z,10.79
2019-02-18T08:55:25.769Z,10.80
2019-02-18T08:56:25.768Z,10.87
2019-02-18T08:57:25.654Z,10.95
2019-02-18T08:58:25.653Z,10.89
2019-02-18T08:59:25.652Z,10.97
2019-02-18T09:00:25.531Z,11.04
2019-02-18T09:01:25.538Z,11.18
2019-02-18T09:02:25.412Z,11.18
2019-02-18T09:03:25.411Z,11.22
2019-02-18T09:04:27.989Z,11.26
2019-02-18T09:05:25.294Z,11.27
2019-02-18T09:06:25.292Z,11.40
2019-02-18T09:07:25.174Z,11.43
2019-02-18T09:08:25.173Z,11.49
2019-02-18T09:09:25.167Z,11.43
2019-02-18T09:10:33.025Z,11.49
2019-02-18T09:11:25.050Z,11.52
2019-02-18T09:12:25.009Z,11.52
2019-02-18T09:13:24.924Z,11.73
2019-02-18T09:14:24.925Z,11.70
2019-02-18T09:15:24.824Z,11.73
2019-02-18T09:16:24.808Z,11.74
2019-02-18T09:17:24.806Z,11.81
2019-02-18T09:18:24.694Z,11.81
2019-02-18T09:19:24.688Z,11.86
2019-02-18T09:20:25.603Z,11.95
2019-02-18T09:21:24.570Z,11.91
2019-02-18T09:22:24.566Z,11.97
2019-02-18T09:23:24.453Z,12.15
2019-02-18T09:24:24.446Z,12.10
2019-02-18T09:25:24.406Z,12.18
2019-02-18T09:26:24.330Z,12.14
2019-02-18T09:27:24.322Z,12.30
2019-02-18T09:28:24.205Z,12.21
2019-02-18T09:29:24.204Z,12.30
2019-02-18T09:30:24.205Z,12.36
2019-02-18T09:31:24.085Z,12.36
2019-02-18T09:32:24.085Z,12.39
2019-02-18T09:33:23.975Z,12.36
2019-02-18T09:34:23.965Z,12.48
2019-02-18T09:35:23.965Z,12.51
2019-02-18T09:36:23.849Z,12.51
2019-02-18T09:37:23.844Z,12.65
2019-02-18T09:38:25.242Z,12.62
2019-02-18T09:39:31.316Z,12.58
2019-02-18T09:40:23.722Z,12.69
2019-02-18T09:41:23.609Z,12.76
2019-02-18T09:42:23.611Z,12.68
2019-02-18T09:43:23.605Z,12.70
2019-02-18T09:44:23.482Z,12.76
2019-02-18T09:45:23.484Z,12.87
2019-02-18T09:46:23.443Z,12.86
2019-02-18T09:47:23.360Z,12.87
2019-02-18T09:48:23.366Z,12.90
2019-02-18T09:49:23.246Z,12.93
2019-02-18T09:50:23.248Z,12.88
2019-02-18T09:51:23.250Z,12.90
2019-02-18T09:52:23.127Z,13.03
2019-02-18T09:53:23.120Z,13.06
2019-02-18T09:54:22.997Z,13.12
2019-02-18T09:55:23.003Z,13.16
2019-02-18T09:56:23.002Z,13.23
2019-02-18T09:57:22.884Z,13.31
2019-02-18T09:58:22.878Z,13.28
2019-02-18T09:59:22.881Z,13.31
2019-02-18T10:00:22.755Z,13.31
2019-02-18T10:01:22.757Z,13.37
2019-02-18T10:02:22.636Z,13.42
2019-02-18T10:03:31.624Z,13.50
2019-02-18T10:04:22.798Z,13.49
2019-02-18T10:05:22.517Z,13.55
2019-02-18T10:06:22.513Z,13.57
2019-02-18T10:07:22.519Z,13.64
2019-02-18T10:08:22.396Z,13.64
2019-02-18T10:09:22.398Z,13.68
2019-02-18T10:10:22.275Z,13.73
2019-02-18T10:11:22.285Z,13.80
2019-02-18T10:12:22.292Z,13.86
2019-02-18T10:13:22.159Z,13.94
2019-02-18T10:14:22.158Z,13.91
2019-02-18T10:15:22.159Z,13.97
2019-02-18T10:16:22.034Z,14.07
2019-02-18T10:17:22.033Z,14.05
2019-02-18T10:18:21.919Z,14.05
2019-02-18T10:19:21.912Z,14.19
2019-02-18T10:20:21.916Z,14.26
2019-02-18T10:21:21.793Z,14.34
2019-02-18T10:22:21.820Z,14.26
2019-02-18T10:23:21.795Z,14.36
2019-02-18T10:24:21.678Z,14.38
2019-02-18T10:25:21.674Z,14.49
2019-02-18T10:26:21.553Z,14.44
2019-02-18T10:27:21.553Z,14.43
2019-02-18T10:28:21.550Z,14.40
2019-02-18T10:29:21.433Z,14.52
2019-02-18T10:30:21.427Z,14.62
2019-02-18T10:31:21.430Z,14.63
2019-02-18T10:32:21.311Z,14.63
2019-02-18T10:33:21.315Z,14.71
2019-02-18T10:34:21.188Z,14.66
2019-02-18T10:35:21.195Z,14.77
2019-02-18T10:36:21.191Z,14.63
2019-02-18T10:37:21.068Z,14.87
2019-02-18T10:38:21.070Z,14.78
2019-02-18T10:39:21.069Z,14.74
2019-02-18T10:40:20.949Z,14.77
2019-02-18T10:41:20.962Z,14.74
2019-02-18T10:42:20.831Z,14.81
2019-02-18T10:43:20.830Z,14.79
2019-02-18T10:44:20.832Z,14.78
2019-02-18T10:45:20.706Z,14.82
2019-02-18T10:46:20.705Z,14.89
2019-02-18T10:47:20.709Z,14.93
2019-02-18T10:48:20.588Z,14.99
2019-02-18T10:49:22.426Z,14.93
2019-02-18T10:50:20.604Z,14.99
2019-02-18T10:51:20.578Z,15.00
2019-02-18T10:52:22.564Z,14.99
2019-02-18T10:53:20.346Z,14.96
2019-02-18T10:54:20.348Z,15.05
2019-02-18T10:55:20.349Z,14.99
2019-02-18T10:56:20.232Z,14.99
2019-02-18T10:57:20.222Z,15.02
2019-02-18T10:58:20.243Z,15.02
2019-02-18T10:59:20.104Z,15.08
2019-02-18T11:00:20.104Z,15.02
2019-02-18T11:01:19.981Z,14.99
2019-02-18T11:02:19.982Z,14.99
2019-02-18T11:03:19.981Z,15.15
2019-02-18T11:04:19.859Z,15.15
2019-02-18T11:05:19.865Z,15.12
2019-02-18T11:06:19.864Z,15.17
2019-02-18T11:07:19.742Z,15.18
2019-02-18T11:08:19.742Z,15.23
2019-02-18T11:09:19.622Z,15.22
2019-02-18T11:10:19.623Z,15.22
2019-02-18T11:11:19.624Z,15.19
2019-02-18T11:12:19.513Z,15.32
2019-02-18T11:13:19.501Z,15.35
2019-02-18T11:14:19.581Z,15.35
2019-02-18T11:15:19.377Z,15.35
2019-02-18T11:16:19.391Z,15.36
2019-02-18T11:17:19.261Z,15.33
2019-02-18T11:18:19.260Z,15.36
2019-02-18T11:19:19.264Z,15.37
2019-02-18T11:20:19.143Z,15.36
2019-02-18T11:21:19.138Z,15.35
2019-02-18T11:22:19.140Z,15.43
2019-02-18T11:23:19.016Z,15.43
2019-02-18T11:24:20.727Z,15.50
2019-02-18T11:25:19.022Z,15.47
2019-02-18T11:26:18.909Z,15.50
2019-02-18T11:27:18.895Z,15.47
2019-02-18T11:28:18.778Z,15.52
2019-02-18T11:29:18.777Z,15.60
2019-02-18T11:30:18.782Z,15.55
2019-02-18T11:31:18.657Z,15.65
2019-02-18T11:32:18.658Z,15.59
2019-02-18T11:33:18.656Z,15.60
2019-02-18T11:34:18.536Z,15.67
2019-02-18T11:35:18.534Z,15.72
2019-02-18T11:36:18.416Z,15.66
2019-02-18T11:37:18.419Z,15.63
2019-02-18T11:38:18.415Z,15.70
2019-02-18T11:39:18.294Z,15.76
2019-02-18T11:40:18.299Z,15.80
2019-02-18T11:41:27.116Z,15.75
2019-02-18T11:42:18.174Z,15.76
2019-02-18T11:43:18.174Z,15.80
2019-02-18T11:44:18.136Z,15.83
2019-02-18T11:45:18.057Z,15.87
2019-02-18T11:46:18.054Z,15.90
2019-02-18T11:47:18.050Z,15.90
2019-02-18T11:48:17.932Z,15.98
2019-02-18T11:49:17.936Z,15.99
2019-02-18T11:50:17.821Z,16.05
2019-02-18T11:51:17.876Z,16.03
2019-02-18T11:52:17.812Z,16.10
2019-02-18T11:53:17.694Z,16.21
2019-02-18T11:54:17.690Z,16.18
2019-02-18T11:55:17.573Z,16.28
2019-02-18T11:56:17.574Z,16.16
2019-02-18T11:57:17.571Z,16.21
2019-02-18T11:58:17.454Z,16.31
2019-02-18T11:59:24.321Z,16.21
2019-02-18T12:00:17.468Z,16.29
2019-02-18T12:01:17.335Z,16.29
2019-02-18T12:02:17.335Z,16.37
2019-02-18T12:03:17.292Z,16.36
2019-02-18T12:04:17.209Z,16.46
2019-02-18T12:05:17.208Z,16.39
2019-02-18T12:06:17.091Z,16.49
2019-02-18T12:07:17.093Z,16.46
2019-02-18T12:08:17.093Z,16.49
2019-02-18T12:09:17.867Z,16.58
2019-02-18T12:10:16.968Z,16.58
2019-02-18T12:11:17.012Z,16.58
2019-02-18T12:12:16.849Z,16.76
2019-02-18T12:13:16.849Z,16.74
2019-02-18T12:14:16.851Z,16.84
2019-02-18T12:15:16.730Z,17.01
2019-02-18T12:16:16.725Z,17.04
2019-02-18T12:17:20.569Z,17.19
2019-02-18T12:18:16.608Z,17.34
2019-02-18T12:19:16.610Z,17.44
2019-02-18T12:20:16.492Z,17.60
2019-02-18T12:21:16.484Z,17.82
2019-02-18T12:22:16.492Z,17.95
2019-02-18T12:23:16.367Z,18.18
2019-02-18T12:24:16.365Z,18.30
2019-02-18T12:25:16.244Z,18.39
2019-02-18T12:26:16.249Z,18.49
2019-02-18T12:27:16.251Z,18.74
2019-02-18T12:28:16.135Z,18.71
2019-02-18T12:29:25.900Z,18.78
2019-02-18T12:30:16.124Z,18.60
2019-02-18T12:31:16.002Z,18.63
2019-02-18T12:32:16.002Z,18.60
2019-02-18T12:33:16.011Z,18.61
2019-02-18T12:34:15.884Z,18.58
2019-02-18T12:35:15.884Z,18.79
2019-02-18T12:36:15.846Z,18.98
2019-02-18T12:37:15.765Z,19.04
2019-02-18T12:38:17.393Z,18.98
2019-02-18T12:39:15.641Z,19.16
2019-02-18T12:40:15.644Z,19.29
2019-02-18T12:41:15.642Z,19.44
2019-02-18T12:42:15.527Z,19.60
2019-02-18T12:43:15.523Z,19.57
2019-02-18T12:44:15.520Z,19.63
2019-02-18T12:45:15.407Z,19.72
2019-02-18T12:46:16.180Z,19.99
2019-02-18T12:47:15.401Z,20.11
2019-02-18T12:48:15.277Z,20.18
2019-02-18T12:49:15.280Z,20.36
2019-02-18T12:50:15.164Z,20.66
2019-02-18T12:51:15.159Z,20.85
2019-02-18T12:52:15.159Z,20.88
2019-02-18T12:53:15.038Z,20.88
2019-02-18T12:54:15.039Z,20.98
2019-02-18T12:55:15.379Z,21.03
2019-02-18T12:56:14.917Z,20.92
2019-02-18T12:57:14.923Z,20.73
2019-02-18T12:58:14.919Z,20.49
2019-02-18T12:59:14.796Z,20.34
2019-02-18T13:00:14.937Z,20.24
2019-02-18T13:01:14.796Z,20.08
2019-02-18T13:02:14.681Z,20.11
2019-02-18T13:03:14.675Z,19.90
2019-02-18T13:04:14.679Z,19.94
2019-02-18T13:05:14.656Z,20.07
2019-02-18T13:06:14.556Z,20.11
2019-02-18T13:07:14.433Z,20.02
2019-02-18T13:08:14.449Z,19.96
2019-02-18T13:09:14.434Z,19.99